sensor_id;sensor_type;location;lat;lon;timestamp;P1;durP1;ratioP1;P2;durP2;ratioP2
23266;SDS011;11802;53.160;8.214;2022-11-06T00:00:29;10.53;;;5.80;;
23266;SDS011;11802;53.160;8.214;2022-11-06T00:02:58;10.40;;;6.37;;
23266;SDS011;11802;53.160;8.214;2022-11-06T00:05:27;11.67;;;5.70;;
23266;SDS011;11802;53.160;8.214;2022-11-06T00:08:12;9.57;;;5.53;;
23266;SDS011;11802;53.160;8.214;2022-11-06T00:10:38;9.87;;;5.10;;
23266;SDS011;11802;53.160;8.214;2022-11-06T00:13:04;10.87;;;5.80;;
23266;SDS011;11802;53.160;8.214;2022-11-06T00:15:29;10.00;;;5.77;;
23266;SDS011;11802;53.160;8.214;2022-11-06T00:17:56;9.97;;;5.47;;
23266;SDS011;11802;53.160;8.214;2022-11-06T00:20:21;11.07;;;5.77;;
23266;SDS011;11802;53.160;8.214;2022-11-06T00:22:47;11.17;;;5.80;;
23266;SDS011;11802;53.160;8.214;2022-11-06T00:25:13;11.40;;;5.73;;
23266;SDS011;11802;53.160;8.214;2022-11-06T00:27:39;9.13;;;5.37;;
23266;SDS011;11802;53.160;8.214;2022-11-06T00:30:05;11.17;;;5.37;;
23266;SDS011;11802;53.160;8.214;2022-11-06T00:32:36;10.03;;;6.20;;
23266;SDS011;11802;53.160;8.214;2022-11-06T00:35:02;12.13;;;5.13;;
23266;SDS011;11802;53.160;8.214;2022-11-06T00:37:28;10.37;;;5.37;;
23266;SDS011;11802;53.160;8.214;2022-11-06T00:39:53;12.60;;;5.93;;
23266;SDS011;11802;53.160;8.214;2022-11-06T00:42:19;11.17;;;5.87;;
23266;SDS011;11802;53.160;8.214;2022-11-06T00:44:44;8.80;;;4.80;;
23266;SDS011;11802;53.160;8.214;2022-11-06T00:47:10;9.13;;;5.90;;
23266;SDS011;11802;53.160;8.214;2022-11-06T00:49:36;13.87;;;6.27;;
23266;SDS011;11802;53.160;8.214;2022-11-06T00:52:02;12.13;;;6.07;;
23266;SDS011;11802;53.160;8.214;2022-11-06T00:54:27;11.50;;;6.10;;
23266;SDS011;11802;53.160;8.214;2022-11-06T00:56:53;13.50;;;5.83;;
23266;SDS011;11802;53.160;8.214;2022-11-06T00:59:18;9.37;;;5.40;;
23266;SDS011;11802;53.160;8.214;2022-11-06T01:01:44;11.00;;;5.83;;
23266;SDS011;11802;53.160;8.214;2022-11-06T01:04:16;12.13;;;5.57;;
23266;SDS011;11802;53.160;8.214;2022-11-06T01:06:48;9.57;;;6.60;;
23266;SDS011;11802;53.160;8.214;2022-11-06T01:09:17;11.27;;;5.73;;
23266;SDS011;11802;53.160;8.214;2022-11-06T01:11:45;12.13;;;6.33;;
23266;SDS011;11802;53.160;8.214;2022-11-06T01:14:13;8.97;;;5.30;;
23266;SDS011;11802;53.160;8.214;2022-11-06T01:16:39;10.67;;;5.57;;
23266;SDS011;11802;53.160;8.214;2022-11-06T01:19:05;11.93;;;5.50;;
23266;SDS011;11802;53.160;8.214;2022-11-06T01:21:32;8.37;;;5.10;;
23266;SDS011;11802;53.160;8.214;2022-11-06T01:24:00;12.23;;;5.53;;
23266;SDS011;11802;53.160;8.214;2022-11-06T01:26:31;14.07;;;6.20;;
23266;SDS011;11802;53.160;8.214;2022-11-06T01:28:57;11.83;;;5.83;;
23266;SDS011;11802;53.160;8.214;2022-11-06T01:31:24;12.43;;;5.63;;
23266;SDS011;11802;53.160;8.214;2022-11-06T01:33:52;10.23;;;5.70;;
23266;SDS011;11802;53.160;8.214;2022-11-06T01:36:19;10.43;;;6.30;;
23266;SDS011;11802;53.160;8.214;2022-11-06T01:38:46;8.50;;;5.37;;
23266;SDS011;11802;53.160;8.214;2022-11-06T01:41:18;8.40;;;5.47;;
23266;SDS011;11802;53.160;8.214;2022-11-06T01:43:52;8.33;;;4.93;;
23266;SDS011;11802;53.160;8.214;2022-11-06T01:46:22;11.87;;;5.50;;
23266;SDS011;11802;53.160;8.214;2022-11-06T01:51:28;9.53;;;5.70;;
23266;SDS011;11802;53.160;8.214;2022-11-06T01:53:58;10.43;;;5.33;;
23266;SDS011;11802;53.160;8.214;2022-11-06T01:56:24;10.03;;;4.93;;
23266;SDS011;11802;53.160;8.214;2022-11-06T01:58:51;8.30;;;4.80;;
23266;SDS011;11802;53.160;8.214;2022-11-06T02:01:19;11.50;;;4.97;;
23266;SDS011;11802;53.160;8.214;2022-11-06T02:03:48;12.47;;;5.33;;
23266;SDS011;11802;53.160;8.214;2022-11-06T02:06:35;8.67;;;5.03;;
23266;SDS011;11802;53.160;8.214;2022-11-06T02:09:05;10.63;;;4.87;;
23266;SDS011;11802;53.160;8.214;2022-11-06T02:11:36;11.27;;;5.53;;
23266;SDS011;11802;53.160;8.214;2022-11-06T02:16:51;10.30;;;4.77;;
23266;SDS011;11802;53.160;8.214;2022-11-06T02:24:41;10.73;;;4.97;;
23266;SDS011;11802;53.160;8.214;2022-11-06T02:27:19;9.03;;;4.60;;
23266;SDS011;11802;53.160;8.214;2022-11-06T02:29:49;10.10;;;5.20;;
23266;SDS011;11802;53.160;8.214;2022-11-06T02:32:20;10.77;;;4.37;;
23266;SDS011;11802;53.160;8.214;2022-11-06T02:34:50;7.07;;;4.67;;
23266;SDS011;11802;53.160;8.214;2022-11-06T02:37:24;8.67;;;4.60;;
23266;SDS011;11802;53.160;8.214;2022-11-06T02:39:53;8.37;;;4.50;;
23266;SDS011;11802;53.160;8.214;2022-11-06T02:42:21;8.53;;;4.83;;
23266;SDS011;11802;53.160;8.214;2022-11-06T02:44:50;7.73;;;4.50;;
23266;SDS011;11802;53.160;8.214;2022-11-06T02:47:18;8.23;;;4.67;;
23266;SDS011;11802;53.160;8.214;2022-11-06T02:49:54;9.10;;;4.90;;
23266;SDS011;11802;53.160;8.214;2022-11-06T02:52:26;9.87;;;4.70;;
23266;SDS011;11802;53.160;8.214;2022-11-06T02:55:24;12.23;;;5.23;;
23266;SDS011;11802;53.160;8.214;2022-11-06T02:57:50;8.63;;;4.47;;
23266;SDS011;11802;53.160;8.214;2022-11-06T03:00:20;9.70;;;4.53;;
23266;SDS011;11802;53.160;8.214;2022-11-06T03:05:18;7.53;;;4.43;;
23266;SDS011;11802;53.160;8.214;2022-11-06T03:07:57;7.53;;;4.30;;
23266;SDS011;11802;53.160;8.214;2022-11-06T03:10:33;10.30;;;4.83;;
23266;SDS011;11802;53.160;8.214;2022-11-06T03:13:20;11.10;;;4.80;;
23266;SDS011;11802;53.160;8.214;2022-11-06T03:16:01;14.47;;;5.10;;
23266;SDS011;11802;53.160;8.214;2022-11-06T03:18:33;10.20;;;4.70;;
23266;SDS011;11802;53.160;8.214;2022-11-06T03:21:23;9.30;;;3.93;;
23266;SDS011;11802;53.160;8.214;2022-11-06T03:24:17;9.40;;;5.37;;
23266;SDS011;11802;53.160;8.214;2022-11-06T03:26:48;10.13;;;4.50;;
23266;SDS011;11802;53.160;8.214;2022-11-06T03:31:50;10.33;;;4.90;;
23266;SDS011;11802;53.160;8.214;2022-11-06T03:34:27;11.87;;;4.47;;
23266;SDS011;11802;53.160;8.214;2022-11-06T03:37:12;9.70;;;4.80;;
23266;SDS011;11802;53.160;8.214;2022-11-06T03:39:47;15.13;;;4.70;;
23266;SDS011;11802;53.160;8.214;2022-11-06T03:42:19;11.43;;;5.03;;
23266;SDS011;11802;53.160;8.214;2022-11-06T03:44:50;12.37;;;4.80;;
23266;SDS011;11802;53.160;8.214;2022-11-06T03:47:26;8.73;;;4.50;;
23266;SDS011;11802;53.160;8.214;2022-11-06T03:50:04;8.07;;;5.00;;
23266;SDS011;11802;53.160;8.214;2022-11-06T03:52:44;7.63;;;4.80;;
23266;SDS011;11802;53.160;8.214;2022-11-06T03:55:19;9.63;;;5.00;;
23266;SDS011;11802;53.160;8.214;2022-11-06T03:57:54;7.47;;;4.57;;
23266;SDS011;11802;53.160;8.214;2022-11-06T04:00:23;10.47;;;4.93;;
23266;SDS011;11802;53.160;8.214;2022-11-06T04:02:50;8.70;;;4.43;;
23266;SDS011;11802;53.160;8.214;2022-11-06T04:05:29;9.70;;;4.80;;
23266;SDS011;11802;53.160;8.214;2022-11-06T04:08:12;9.83;;;4.17;;
23266;SDS011;11802;53.160;8.214;2022-11-06T04:10:59;11.67;;;4.80;;
23266;SDS011;11802;53.160;8.214;2022-11-06T04:13:46;11.03;;;5.33;;
23266;SDS011;11802;53.160;8.214;2022-11-06T04:16:34;8.40;;;4.73;;
23266;SDS011;11802;53.160;8.214;2022-11-06T04:19:07;10.43;;;5.00;;
23266;SDS011;11802;53.160;8.214;2022-11-06T04:27:08;12.80;;;5.23;;
23266;SDS011;11802;53.160;8.214;2022-11-06T04:32:20;11.20;;;4.97;;
23266;SDS011;11802;53.160;8.214;2022-11-06T04:37:21;9.43;;;5.17;;
23266;SDS011;11802;53.160;8.214;2022-11-06T04:39:58;9.77;;;5.00;;
23266;SDS011;11802;53.160;8.214;2022-11-06T04:45:27;11.43;;;5.53;;
23266;SDS011;11802;53.160;8.214;2022-11-06T04:47:56;10.30;;;4.90;;
23266;SDS011;11802;53.160;8.214;2022-11-06T04:50:23;8.63;;;4.90;;
23266;SDS011;11802;53.160;8.214;2022-11-06T04:52:51;10.87;;;4.20;;
23266;SDS011;11802;53.160;8.214;2022-11-06T04:55:18;10.30;;;4.33;;
23266;SDS011;11802;53.160;8.214;2022-11-06T04:57:45;10.43;;;4.50;;
23266;SDS011;11802;53.160;8.214;2022-11-06T05:00:13;8.87;;;4.90;;
23266;SDS011;11802;53.160;8.214;2022-11-06T05:02:40;8.33;;;4.73;;
23266;SDS011;11802;53.160;8.214;2022-11-06T05:05:06;12.20;;;4.63;;
23266;SDS011;11802;53.160;8.214;2022-11-06T05:07:32;9.17;;;4.90;;
23266;SDS011;11802;53.160;8.214;2022-11-06T05:09:57;8.60;;;4.70;;
23266;SDS011;11802;53.160;8.214;2022-11-06T05:12:23;8.67;;;4.53;;
23266;SDS011;11802;53.160;8.214;2022-11-06T05:14:48;13.57;;;5.43;;
23266;SDS011;11802;53.160;8.214;2022-11-06T05:17:14;7.40;;;4.33;;
23266;SDS011;11802;53.160;8.214;2022-11-06T05:19:39;10.13;;;5.20;;
23266;SDS011;11802;53.160;8.214;2022-11-06T05:22:05;11.60;;;5.17;;
23266;SDS011;11802;53.160;8.214;2022-11-06T05:24:49;11.50;;;5.63;;
23266;SDS011;11802;53.160;8.214;2022-11-06T05:27:14;9.43;;;5.40;;
23266;SDS011;11802;53.160;8.214;2022-11-06T05:29:40;9.13;;;4.87;;
23266;SDS011;11802;53.160;8.214;2022-11-06T05:32:05;11.17;;;4.97;;
23266;SDS011;11802;53.160;8.214;2022-11-06T05:34:31;11.67;;;5.20;;
23266;SDS011;11802;53.160;8.214;2022-11-06T05:36:56;11.97;;;5.07;;
23266;SDS011;11802;53.160;8.214;2022-11-06T05:39:22;12.93;;;5.10;;
23266;SDS011;11802;53.160;8.214;2022-11-06T05:41:47;9.90;;;4.50;;
23266;SDS011;11802;53.160;8.214;2022-11-06T05:44:14;10.60;;;4.97;;
23266;SDS011;11802;53.160;8.214;2022-11-06T05:46:39;10.27;;;4.87;;
23266;SDS011;11802;53.160;8.214;2022-11-06T05:49:05;10.10;;;5.03;;
23266;SDS011;11802;53.160;8.214;2022-11-06T05:51:30;8.30;;;4.40;;
23266;SDS011;11802;53.160;8.214;2022-11-06T05:53:56;9.07;;;4.13;;
23266;SDS011;11802;53.160;8.214;2022-11-06T05:56:21;10.03;;;4.83;;
23266;SDS011;11802;53.160;8.214;2022-11-06T05:58:47;9.43;;;5.03;;
23266;SDS011;11802;53.160;8.214;2022-11-06T06:01:12;10.57;;;5.10;;
23266;SDS011;11802;53.160;8.214;2022-11-06T06:03:38;9.93;;;4.47;;
23266;SDS011;11802;53.160;8.214;2022-11-06T06:06:04;9.43;;;3.93;;
23266;SDS011;11802;53.160;8.214;2022-11-06T06:08:29;10.03;;;4.60;;
23266;SDS011;11802;53.160;8.214;2022-11-06T06:10:55;13.10;;;4.40;;
23266;SDS011;11802;53.160;8.214;2022-11-06T06:13:20;9.93;;;4.17;;
23266;SDS011;11802;53.160;8.214;2022-11-06T06:15:46;10.57;;;4.47;;
23266;SDS011;11802;53.160;8.214;2022-11-06T06:18:11;8.20;;;4.77;;
23266;SDS011;11802;53.160;8.214;2022-11-06T06:20:37;9.57;;;4.13;;
23266;SDS011;11802;53.160;8.214;2022-11-06T06:23:03;11.27;;;4.10;;
23266;SDS011;11802;53.160;8.214;2022-11-06T06:25:29;10.13;;;4.10;;
23266;SDS011;11802;53.160;8.214;2022-11-06T06:27:55;11.47;;;4.93;;
23266;SDS011;11802;53.160;8.214;2022-11-06T06:30:21;8.73;;;4.33;;
23266;SDS011;11802;53.160;8.214;2022-11-06T06:32:48;10.57;;;4.43;;
23266;SDS011;11802;53.160;8.214;2022-11-06T06:35:14;11.50;;;4.33;;
23266;SDS011;11802;53.160;8.214;2022-11-06T06:37:41;9.40;;;4.10;;
23266;SDS011;11802;53.160;8.214;2022-11-06T06:40:08;9.57;;;3.90;;
23266;SDS011;11802;53.160;8.214;2022-11-06T06:42:34;8.73;;;4.20;;
23266;SDS011;11802;53.160;8.214;2022-11-06T06:45:00;10.00;;;4.30;;
23266;SDS011;11802;53.160;8.214;2022-11-06T06:47:26;10.40;;;4.13;;
23266;SDS011;11802;53.160;8.214;2022-11-06T06:49:51;8.40;;;3.50;;
23266;SDS011;11802;53.160;8.214;2022-11-06T06:52:17;11.57;;;3.70;;
23266;SDS011;11802;53.160;8.214;2022-11-06T06:54:42;10.40;;;4.47;;
23266;SDS011;11802;53.160;8.214;2022-11-06T06:57:08;8.40;;;3.87;;
23266;SDS011;11802;53.160;8.214;2022-11-06T06:59:34;7.70;;;4.07;;
23266;SDS011;11802;53.160;8.214;2022-11-06T07:01:59;7.80;;;4.10;;
23266;SDS011;11802;53.160;8.214;2022-11-06T07:04:25;7.53;;;3.90;;
23266;SDS011;11802;53.160;8.214;2022-11-06T07:06:54;8.87;;;4.30;;
23266;SDS011;11802;53.160;8.214;2022-11-06T07:09:20;8.13;;;4.43;;
23266;SDS011;11802;53.160;8.214;2022-11-06T07:11:47;12.50;;;4.30;;
23266;SDS011;11802;53.160;8.214;2022-11-06T07:14:13;8.30;;;4.10;;
23266;SDS011;11802;53.160;8.214;2022-11-06T07:16:38;11.90;;;4.03;;
23266;SDS011;11802;53.160;8.214;2022-11-06T07:19:04;10.03;;;3.77;;
23266;SDS011;11802;53.160;8.214;2022-11-06T07:21:29;10.23;;;3.90;;
23266;SDS011;11802;53.160;8.214;2022-11-06T07:23:55;8.90;;;3.60;;
23266;SDS011;11802;53.160;8.214;2022-11-06T07:26:20;8.40;;;3.50;;
23266;SDS011;11802;53.160;8.214;2022-11-06T07:28:46;7.87;;;3.87;;
23266;SDS011;11802;53.160;8.214;2022-11-06T07:31:12;7.90;;;3.23;;
23266;SDS011;11802;53.160;8.214;2022-11-06T07:33:37;7.20;;;3.27;;
23266;SDS011;11802;53.160;8.214;2022-11-06T07:36:10;7.80;;;3.70;;
23266;SDS011;11802;53.160;8.214;2022-11-06T07:38:37;5.40;;;3.47;;
23266;SDS011;11802;53.160;8.214;2022-11-06T07:41:05;6.83;;;3.60;;
23266;SDS011;11802;53.160;8.214;2022-11-06T07:43:39;10.97;;;3.83;;
23266;SDS011;11802;53.160;8.214;2022-11-06T07:46:06;6.37;;;3.40;;
23266;SDS011;11802;53.160;8.214;2022-11-06T07:48:34;10.57;;;3.47;;
23266;SDS011;11802;53.160;8.214;2022-11-06T07:51:03;8.17;;;3.20;;
23266;SDS011;11802;53.160;8.214;2022-11-06T07:53:30;8.33;;;3.87;;
23266;SDS011;11802;53.160;8.214;2022-11-06T07:55:56;8.50;;;3.10;;
23266;SDS011;11802;53.160;8.214;2022-11-06T07:58:22;7.40;;;3.00;;
23266;SDS011;11802;53.160;8.214;2022-11-06T08:00:49;8.80;;;3.50;;
23266;SDS011;11802;53.160;8.214;2022-11-06T08:03:16;5.33;;;2.70;;
23266;SDS011;11802;53.160;8.214;2022-11-06T08:05:43;5.13;;;2.63;;
23266;SDS011;11802;53.160;8.214;2022-11-06T08:08:09;7.37;;;2.47;;
23266;SDS011;11802;53.160;8.214;2022-11-06T08:10:35;6.80;;;2.50;;
23266;SDS011;11802;53.160;8.214;2022-11-06T08:13:04;9.90;;;3.17;;
23266;SDS011;11802;53.160;8.214;2022-11-06T08:15:31;5.83;;;2.70;;
23266;SDS011;11802;53.160;8.214;2022-11-06T08:17:57;9.77;;;3.20;;
23266;SDS011;11802;53.160;8.214;2022-11-06T08:20:23;7.00;;;2.47;;
23266;SDS011;11802;53.160;8.214;2022-11-06T08:22:49;5.60;;;2.70;;
23266;SDS011;11802;53.160;8.214;2022-11-06T08:25:14;9.40;;;3.30;;
23266;SDS011;11802;53.160;8.214;2022-11-06T08:27:40;7.90;;;2.73;;
23266;SDS011;11802;53.160;8.214;2022-11-06T08:30:08;6.73;;;2.80;;
23266;SDS011;11802;53.160;8.214;2022-11-06T08:32:34;7.60;;;2.73;;
23266;SDS011;11802;53.160;8.214;2022-11-06T08:35:00;6.77;;;2.77;;
23266;SDS011;11802;53.160;8.214;2022-11-06T08:37:25;9.97;;;3.77;;
23266;SDS011;11802;53.160;8.214;2022-11-06T08:39:50;9.53;;;2.77;;
23266;SDS011;11802;53.160;8.214;2022-11-06T08:42:16;6.63;;;2.93;;
23266;SDS011;11802;53.160;8.214;2022-11-06T08:44:42;6.27;;;2.90;;
23266;SDS011;11802;53.160;8.214;2022-11-06T08:47:07;6.87;;;2.60;;
23266;SDS011;11802;53.160;8.214;2022-11-06T08:49:33;6.00;;;2.40;;
23266;SDS011;11802;53.160;8.214;2022-11-06T08:51:59;7.17;;;2.20;;
23266;SDS011;11802;53.160;8.214;2022-11-06T08:54:24;6.53;;;2.33;;
23266;SDS011;11802;53.160;8.214;2022-11-06T08:56:50;9.63;;;2.70;;
23266;SDS011;11802;53.160;8.214;2022-11-06T08:59:15;6.67;;;2.50;;
23266;SDS011;11802;53.160;8.214;2022-11-06T09:01:42;5.53;;;2.57;;
23266;SDS011;11802;53.160;8.214;2022-11-06T09:04:07;3.97;;;2.40;;
23266;SDS011;11802;53.160;8.214;2022-11-06T09:06:33;4.93;;;2.50;;
23266;SDS011;11802;53.160;8.214;2022-11-06T09:08:58;8.57;;;2.70;;
23266;SDS011;11802;53.160;8.214;2022-11-06T09:11:24;5.27;;;2.37;;
23266;SDS011;11802;53.160;8.214;2022-11-06T09:13:49;9.23;;;2.83;;
23266;SDS011;11802;53.160;8.214;2022-11-06T09:16:15;8.83;;;2.43;;
23266;SDS011;11802;53.160;8.214;2022-11-06T09:18:41;6.23;;;2.23;;
23266;SDS011;11802;53.160;8.214;2022-11-06T09:21:07;7.10;;;2.40;;
23266;SDS011;11802;53.160;8.214;2022-11-06T09:23:32;7.13;;;2.40;;
23266;SDS011;11802;53.160;8.214;2022-11-06T09:25:59;6.53;;;2.30;;
23266;SDS011;11802;53.160;8.214;2022-11-06T09:28:24;6.13;;;2.20;;
23266;SDS011;11802;53.160;8.214;2022-11-06T09:30:50;8.10;;;2.40;;
23266;SDS011;11802;53.160;8.214;2022-11-06T09:33:15;5.70;;;2.30;;
23266;SDS011;11802;53.160;8.214;2022-11-06T09:35:41;6.07;;;2.30;;
23266;SDS011;11802;53.160;8.214;2022-11-06T09:38:08;5.60;;;2.50;;
23266;SDS011;11802;53.160;8.214;2022-11-06T09:45:53;10.37;;;3.00;;
23266;SDS011;11802;53.160;8.214;2022-11-06T09:48:27;6.63;;;2.50;;
23266;SDS011;11802;53.160;8.214;2022-11-06T09:50:58;11.43;;;3.17;;
23266;SDS011;11802;53.160;8.214;2022-11-06T09:54:14;7.17;;;2.47;;
23266;SDS011;11802;53.160;8.214;2022-11-06T09:56:24;5.33;;;2.27;;
23266;SDS011;11802;53.160;8.214;2022-11-06T09:58:55;5.23;;;2.30;;
23266;SDS011;11802;53.160;8.214;2022-11-06T10:01:25;3.47;;;2.00;;
23266;SDS011;11802;53.160;8.214;2022-11-06T10:04:00;7.07;;;2.00;;
23266;SDS011;11802;53.160;8.214;2022-11-06T10:06:27;6.60;;;2.23;;
23266;SDS011;11802;53.160;8.214;2022-11-06T10:08:55;7.70;;;2.43;;
23266;SDS011;11802;53.160;8.214;2022-11-06T10:11:38;6.33;;;2.10;;
23266;SDS011;11802;53.160;8.214;2022-11-06T10:14:14;4.87;;;1.93;;
23266;SDS011;11802;53.160;8.214;2022-11-06T10:16:59;7.13;;;2.20;;
23266;SDS011;11802;53.160;8.214;2022-11-06T10:19:38;5.77;;;2.13;;
23266;SDS011;11802;53.160;8.214;2022-11-06T10:27:38;4.27;;;1.70;;
23266;SDS011;11802;53.160;8.214;2022-11-06T10:30:12;3.83;;;1.67;;
23266;SDS011;11802;53.160;8.214;2022-11-06T10:32:46;4.30;;;1.80;;
23266;SDS011;11802;53.160;8.214;2022-11-06T10:35:38;5.17;;;1.80;;
23266;SDS011;11802;53.160;8.214;2022-11-06T10:38:10;5.53;;;2.17;;
23266;SDS011;11802;53.160;8.214;2022-11-06T10:40:38;7.97;;;2.43;;
23266;SDS011;11802;53.160;8.214;2022-11-06T10:43:08;3.60;;;1.87;;
23266;SDS011;11802;53.160;8.214;2022-11-06T10:45:57;6.63;;;2.17;;
23266;SDS011;11802;53.160;8.214;2022-11-06T10:48:31;7.13;;;2.10;;
23266;SDS011;11802;53.160;8.214;2022-11-06T10:59:16;5.43;;;1.73;;
23266;SDS011;11802;53.160;8.214;2022-11-06T11:01:41;4.63;;;1.90;;
23266;SDS011;11802;53.160;8.214;2022-11-06T11:04:07;5.57;;;2.40;;
23266;SDS011;11802;53.160;8.214;2022-11-06T11:06:33;7.20;;;1.90;;
23266;SDS011;11802;53.160;8.214;2022-11-06T11:08:58;9.60;;;2.57;;
23266;SDS011;11802;53.160;8.214;2022-11-06T11:11:26;6.50;;;3.30;;
23266;SDS011;11802;53.160;8.214;2022-11-06T11:16:27;7.73;;;2.43;;
23266;SDS011;11802;53.160;8.214;2022-11-06T11:19:13;9.17;;;2.10;;
23266;SDS011;11802;53.160;8.214;2022-11-06T11:21:40;9.73;;;2.40;;
23266;SDS011;11802;53.160;8.214;2022-11-06T11:24:20;3.23;;;1.60;;
23266;SDS011;11802;53.160;8.214;2022-11-06T11:26:46;5.53;;;2.00;;
23266;SDS011;11802;53.160;8.214;2022-11-06T11:31:54;4.00;;;1.60;;
23266;SDS011;11802;53.160;8.214;2022-11-06T11:34:24;4.17;;;1.70;;
23266;SDS011;11802;53.160;8.214;2022-11-06T11:36:55;4.67;;;1.50;;
23266;SDS011;11802;53.160;8.214;2022-11-06T11:39:25;6.77;;;1.60;;
23266;SDS011;11802;53.160;8.214;2022-11-06T11:41:55;3.80;;;1.50;;
23266;SDS011;11802;53.160;8.214;2022-11-06T11:44:46;4.40;;;1.53;;
23266;SDS011;11802;53.160;8.214;2022-11-06T11:47:33;4.47;;;1.30;;
23266;SDS011;11802;53.160;8.214;2022-11-06T11:50:14;7.83;;;1.50;;
23266;SDS011;11802;53.160;8.214;2022-11-06T11:52:44;6.10;;;1.63;;
23266;SDS011;11802;53.160;8.214;2022-11-06T11:55:15;6.80;;;1.57;;
23266;SDS011;11802;53.160;8.214;2022-11-06T11:57:43;6.73;;;1.70;;
23266;SDS011;11802;53.160;8.214;2022-11-06T12:00:19;10.03;;;1.73;;
23266;SDS011;11802;53.160;8.214;2022-11-06T12:02:59;5.00;;;1.43;;
23266;SDS011;11802;53.160;8.214;2022-11-06T12:07:58;7.63;;;1.93;;
23266;SDS011;11802;53.160;8.214;2022-11-06T12:10:26;5.20;;;1.73;;
23266;SDS011;11802;53.160;8.214;2022-11-06T12:12:52;6.00;;;1.50;;
23266;SDS011;11802;53.160;8.214;2022-11-06T12:15:23;4.43;;;1.57;;
23266;SDS011;11802;53.160;8.214;2022-11-06T12:18:10;6.47;;;1.70;;
23266;SDS011;11802;53.160;8.214;2022-11-06T12:20:58;3.93;;;1.70;;
23266;SDS011;11802;53.160;8.214;2022-11-06T12:23:46;4.93;;;1.50;;
23266;SDS011;11802;53.160;8.214;2022-11-06T12:29:26;5.03;;;2.23;;
23266;SDS011;11802;53.160;8.214;2022-11-06T12:35:04;3.90;;;1.60;;
23266;SDS011;11802;53.160;8.214;2022-11-06T12:37:57;5.97;;;1.50;;
23266;SDS011;11802;53.160;8.214;2022-11-06T12:40:28;5.27;;;1.83;;
23266;SDS011;11802;53.160;8.214;2022-11-06T12:43:01;5.73;;;1.80;;
23266;SDS011;11802;53.160;8.214;2022-11-06T12:45:42;5.40;;;2.07;;
23266;SDS011;11802;53.160;8.214;2022-11-06T12:49:30;5.97;;;1.93;;
23266;SDS011;11802;53.160;8.214;2022-11-06T12:57:03;5.43;;;2.00;;
23266;SDS011;11802;53.160;8.214;2022-11-06T13:05:27;6.10;;;1.60;;
23266;SDS011;11802;53.160;8.214;2022-11-06T13:24:17;5.87;;;1.33;;
23266;SDS011;11802;53.160;8.214;2022-11-06T13:27:21;8.83;;;1.50;;
23266;SDS011;11802;53.160;8.214;2022-11-06T13:29:51;8.30;;;1.57;;
23266;SDS011;11802;53.160;8.214;2022-11-06T13:32:21;4.23;;;1.60;;
23266;SDS011;11802;53.160;8.214;2022-11-06T13:34:49;6.67;;;1.67;;
23266;SDS011;11802;53.160;8.214;2022-11-06T13:37:19;3.70;;;1.37;;
23266;SDS011;11802;53.160;8.214;2022-11-06T13:39:57;5.67;;;1.53;;
23266;SDS011;11802;53.160;8.214;2022-11-06T13:42:29;7.10;;;1.47;;
23266;SDS011;11802;53.160;8.214;2022-11-06T13:45:05;6.83;;;1.60;;
23266;SDS011;11802;53.160;8.214;2022-11-06T13:47:37;5.03;;;1.40;;
23266;SDS011;11802;53.160;8.214;2022-11-06T13:50:18;4.50;;;1.30;;
23266;SDS011;11802;53.160;8.214;2022-11-06T13:56:30;3.27;;;1.20;;
23266;SDS011;11802;53.160;8.214;2022-11-06T13:58:41;2.67;;;1.10;;
23266;SDS011;11802;53.160;8.214;2022-11-06T14:04:01;5.37;;;1.40;;
23266;SDS011;11802;53.160;8.214;2022-11-06T14:06:34;4.97;;;1.40;;
23266;SDS011;11802;53.160;8.214;2022-11-06T14:09:04;4.20;;;1.00;;
23266;SDS011;11802;53.160;8.214;2022-11-06T14:11:38;2.80;;;1.30;;
23266;SDS011;11802;53.160;8.214;2022-11-06T14:14:08;3.77;;;1.33;;
23266;SDS011;11802;53.160;8.214;2022-11-06T14:25:43;2.90;;;1.50;;
23266;SDS011;11802;53.160;8.214;2022-11-06T14:32:55;4.27;;;1.50;;
23266;SDS011;11802;53.160;8.214;2022-11-06T14:40:55;4.27;;;1.37;;
23266;SDS011;11802;53.160;8.214;2022-11-06T14:43:30;3.67;;;1.50;;
23266;SDS011;11802;53.160;8.214;2022-11-06T14:46:04;2.43;;;1.20;;
23266;SDS011;11802;53.160;8.214;2022-11-06T14:48:41;4.07;;;1.80;;
23266;SDS011;11802;53.160;8.214;2022-11-06T14:51:10;7.30;;;2.17;;
23266;SDS011;11802;53.160;8.214;2022-11-06T14:53:50;5.50;;;1.67;;
23266;SDS011;11802;53.160;8.214;2022-11-06T14:56:28;6.57;;;1.77;;
23266;SDS011;11802;53.160;8.214;2022-11-06T14:58:57;6.10;;;2.10;;
23266;SDS011;11802;53.160;8.214;2022-11-06T15:01:33;8.77;;;1.90;;
23266;SDS011;11802;53.160;8.214;2022-11-06T15:04:04;4.23;;;1.77;;
23266;SDS011;11802;53.160;8.214;2022-11-06T15:06:42;9.27;;;1.87;;
23266;SDS011;11802;53.160;8.214;2022-11-06T15:12:01;6.47;;;1.60;;
23266;SDS011;11802;53.160;8.214;2022-11-06T15:16:58;4.27;;;2.40;;
23266;SDS011;11802;53.160;8.214;2022-11-06T15:19:28;3.40;;;1.90;;
23266;SDS011;11802;53.160;8.214;2022-11-06T15:24:47;5.10;;;1.80;;
23266;SDS011;11802;53.160;8.214;2022-11-06T15:27:32;7.93;;;2.17;;
23266;SDS011;11802;53.160;8.214;2022-11-06T15:30:03;4.80;;;1.80;;
23266;SDS011;11802;53.160;8.214;2022-11-06T15:32:30;7.93;;;2.83;;
23266;SDS011;11802;53.160;8.214;2022-11-06T15:37:30;5.20;;;2.40;;
23266;SDS011;11802;53.160;8.214;2022-11-06T15:40:01;8.00;;;2.00;;
23266;SDS011;11802;53.160;8.214;2022-11-06T15:42:29;7.77;;;2.33;;
23266;SDS011;11802;53.160;8.214;2022-11-06T15:45:05;6.03;;;2.27;;
23266;SDS011;11802;53.160;8.214;2022-11-06T15:47:33;6.80;;;2.40;;
23266;SDS011;11802;53.160;8.214;2022-11-06T15:52:43;6.67;;;2.43;;
23266;SDS011;11802;53.160;8.214;2022-11-06T15:55:29;7.63;;;2.70;;
23266;SDS011;11802;53.160;8.214;2022-11-06T16:00:54;5.33;;;2.20;;
23266;SDS011;11802;53.160;8.214;2022-11-06T16:03:22;9.03;;;3.57;;
23266;SDS011;11802;53.160;8.214;2022-11-06T16:05:49;9.43;;;3.30;;
23266;SDS011;11802;53.160;8.214;2022-11-06T16:08:17;5.93;;;2.50;;
23266;SDS011;11802;53.160;8.214;2022-11-06T16:10:44;8.53;;;3.00;;
23266;SDS011;11802;53.160;8.214;2022-11-06T16:13:17;7.77;;;2.40;;
23266;SDS011;11802;53.160;8.214;2022-11-06T16:15:45;6.43;;;2.70;;
23266;SDS011;11802;53.160;8.214;2022-11-06T16:18:23;6.90;;;2.37;;
23266;SDS011;11802;53.160;8.214;2022-11-06T16:20:54;6.90;;;2.73;;
23266;SDS011;11802;53.160;8.214;2022-11-06T16:23:25;7.10;;;2.80;;
23266;SDS011;11802;53.160;8.214;2022-11-06T16:26:03;6.50;;;2.37;;
23266;SDS011;11802;53.160;8.214;2022-11-06T16:28:31;5.23;;;2.60;;
23266;SDS011;11802;53.160;8.214;2022-11-06T16:30:59;6.33;;;2.57;;
23266;SDS011;11802;53.160;8.214;2022-11-06T16:33:34;6.23;;;2.97;;
23266;SDS011;11802;53.160;8.214;2022-11-06T16:36:10;5.27;;;2.87;;
23266;SDS011;11802;53.160;8.214;2022-11-06T16:38:40;7.30;;;3.20;;
23266;SDS011;11802;53.160;8.214;2022-11-06T16:41:08;7.07;;;2.80;;
23266;SDS011;11802;53.160;8.214;2022-11-06T16:43:35;8.03;;;3.30;;
23266;SDS011;11802;53.160;8.214;2022-11-06T16:46:02;5.90;;;2.83;;
23266;SDS011;11802;53.160;8.214;2022-11-06T16:48:33;6.57;;;3.10;;
23266;SDS011;11802;53.160;8.214;2022-11-06T16:51:03;5.20;;;3.47;;
23266;SDS011;11802;53.160;8.214;2022-11-06T16:53:32;6.40;;;3.33;;
23266;SDS011;11802;53.160;8.214;2022-11-06T16:56:20;6.30;;;3.60;;
23266;SDS011;11802;53.160;8.214;2022-11-06T16:58:49;6.23;;;3.50;;
23266;SDS011;11802;53.160;8.214;2022-11-06T17:01:18;6.40;;;3.40;;
23266;SDS011;11802;53.160;8.214;2022-11-06T17:04:02;11.83;;;3.43;;
23266;SDS011;11802;53.160;8.214;2022-11-06T17:06:29;6.50;;;3.07;;
23266;SDS011;11802;53.160;8.214;2022-11-06T17:09:01;7.50;;;3.53;;
23266;SDS011;11802;53.160;8.214;2022-11-06T17:11:32;7.50;;;3.30;;
23266;SDS011;11802;53.160;8.214;2022-11-06T17:13:58;7.43;;;3.67;;